Vihari Weather



Vihari's Current Weather

Temprature 9.13o clear sky

clear sky

Rain: 0 %

Min Temprature9.13o
Max Temprature9.13o
Humidity52
Wind Speed3.11 m/h
Sun Rise07:06:38
Sun Set17:34:56
Current Time: 18-Jan-2021 06:26:16
Lat/Lon: 30.0333, 72.35




Vihari's Geo Location



Vihari's Weather Forecast

Time Overall Temp Min Temp Max Temp Humidity Wind Speed Rain
18-Jan-2021 (Mon)
08:00:00 clear sky 9.210 9.210 9.250 51 3.21 m/h 0 %
11:00:00 clear sky 16.200 16.200 18.130 33 3.65 m/h 0 %
14:00:00 clear sky 21.920 21.920 22.790 21 4.53 m/h 0 %
17:00:00 clear sky 19.870 19.870 19.960 24 3.12 m/h 0 %
20:00:00 clear sky 13.990 13.990 13.990 36 2.49 m/h 0 %
23:00:00 clear sky 12.090 12.090 12.090 41 2.6 m/h 0 %
19-Jan-2021 (Tue)
02:00:00 clear sky 10.760 10.760 10.760 45 2.38 m/h 0 %
05:00:00 clear sky 9.680 9.680 9.680 49 1.96 m/h 0 %
08:00:00 clear sky 10.530 10.530 10.530 47 1.78 m/h 0 %
11:00:00 clear sky 19.510 19.510 19.510 26 1.69 m/h 0 %
14:00:00 clear sky 23.700 23.700 23.700 19 2.42 m/h 0 %
17:00:00 clear sky 21.120 21.120 21.120 22 1.19 m/h 0 %
20:00:00 clear sky 15.740 15.740 15.740 30 2.11 m/h 0 %
23:00:00 clear sky 13.590 13.590 13.590 36 1.61 m/h 0 %
20-Jan-2021 (Wed)
02:00:00 clear sky 12.390 12.390 12.390 39 0.82 m/h 0 %
05:00:00 clear sky 11.530 11.530 11.530 41 1.27 m/h 0 %
08:00:00 clear sky 12.600 12.600 12.600 38 1.06 m/h 0 %
11:00:00 clear sky 22.240 22.240 22.240 20 1.63 m/h 0 %
14:00:00 clear sky 25.780 25.780 25.780 16 2.53 m/h 0 %
17:00:00 clear sky 22.560 22.560 22.560 19 1.36 m/h 0 %
20:00:00 scattered clouds 16.940 16.940 16.940 27 1.83 m/h 0 %
23:00:00 few clouds 14.560 14.560 14.560 32 1.05 m/h 0 %
21-Jan-2021 (Thu)
02:00:00 clear sky 13.710 13.710 13.710 34 0.46 m/h 0 %
05:00:00 clear sky 12.730 12.730 12.730 36 0.55 m/h 0 %
08:00:00 clear sky 14.110 14.110 14.110 33 0.28 m/h 0 %
11:00:00 clear sky 23.590 23.590 23.590 18 1.54 m/h 0 %
14:00:00 clear sky 27.390 27.390 27.390 14 2.65 m/h 0 %
17:00:00 clear sky 24.660 24.660 24.660 17 2.85 m/h 0 %
20:00:00 clear sky 18.800 18.800 18.800 25 3.14 m/h 0 %
23:00:00 clear sky 16.990 16.990 16.990 28 2.59 m/h 0 %
22-Jan-2021 (Fri)
02:00:00 clear sky 16.020 16.020 16.020 30 2.6 m/h 0 %
05:00:00 clear sky 14.690 14.690 14.690 32 2.75 m/h 0 %
08:00:00 clear sky 14.960 14.960 14.960 31 2.7 m/h 0 %
11:00:00 clear sky 24.400 24.400 24.400 17 3.33 m/h 0 %
14:00:00 few clouds 28.330 28.330 28.330 14 3.8 m/h 0 %
17:00:00 broken clouds 25.380 25.380 25.380 17 2.37 m/h 0 %
20:00:00 overcast clouds 18.900 18.900 18.900 25 0.81 m/h 0 %
23:00:00 overcast clouds 16.730 16.730 16.730 29 2.04 m/h 0 %
23-Jan-2021 (Sat)
02:00:00 overcast clouds 15.340 15.340 15.340 32 2.81 m/h 0 %
05:00:00 overcast clouds 13.730 13.730 13.730 36 3.95 m/h 0 %

Famous Cities (60)